createdAt,value
2022-12-07T00:01:42.377Z,4.74
2022-12-07T00:04:43.894Z,4.36
2022-12-07T00:07:45.412Z,4.38
2022-12-07T00:10:46.903Z,4.61
2022-12-07T00:13:53.128Z,4.60
2022-12-07T00:16:54.694Z,4.56
2022-12-07T00:19:56.188Z,4.53
2022-12-07T00:22:57.627Z,4.42
2022-12-07T00:26:20.565Z,4.44
2022-12-07T00:29:23.413Z,4.61
2022-12-07T00:32:24.819Z,4.86
2022-12-07T00:35:26.246Z,4.91
2022-12-07T00:38:34.690Z,5.05
2022-12-07T00:41:36.146Z,5.14
2022-12-07T00:44:37.560Z,5.05
2022-12-07T00:47:38.981Z,5.05
2022-12-07T00:50:40.385Z,5.06
2022-12-07T00:53:42.319Z,5.08
2022-12-07T00:56:43.827Z,5.02
2022-12-07T00:59:45.232Z,5.04
2022-12-07T01:02:46.755Z,5.08
2022-12-07T01:05:53.274Z,4.95
2022-12-07T01:08:55.542Z,4.91
2022-12-07T01:11:57.017Z,4.98
2022-12-07T01:14:58.425Z,4.91
2022-12-07T01:17:59.869Z,4.95
2022-12-07T01:21:13.748Z,5.09
2022-12-07T01:24:15.177Z,5.14
2022-12-07T01:27:17.180Z,5.13
2022-12-07T01:30:18.614Z,5.06
2022-12-07T01:33:20.050Z,5.07
2022-12-07T01:36:27.490Z,5.01
2022-12-07T01:39:29.123Z,4.94
2022-12-07T01:42:30.574Z,4.85
2022-12-07T01:45:37.607Z,4.85
2022-12-07T01:48:42.574Z,4.82
2022-12-07T01:51:44.455Z,4.99
2022-12-07T01:54:48.109Z,5.06
2022-12-07T01:57:53.017Z,5.07
2022-12-07T02:00:54.495Z,5.08
2022-12-07T02:03:56.419Z,5.04
2022-12-07T02:06:58.694Z,5.07
2022-12-07T02:10:23.307Z,4.81
2022-12-07T02:13:27.828Z,4.57
2022-12-07T02:16:44.568Z,4.54
2022-12-07T02:20:24.143Z,4.60
2022-12-07T02:23:43.172Z,4.88
2022-12-07T02:27:18.746Z,4.94
2022-12-07T02:30:22.060Z,4.75
2022-12-07T02:33:29.468Z,4.98
2022-12-07T02:36:37.135Z,4.94
2022-12-07T02:39:47.188Z,4.74
2022-12-07T02:42:54.588Z,4.65
2022-12-07T02:46:04.967Z,4.67
2022-12-07T02:49:08.809Z,4.51
2022-12-07T02:52:10.506Z,4.34
2022-12-07T02:55:13.683Z,4.34
2022-12-07T02:58:29.022Z,4.48
2022-12-07T03:01:45.665Z,4.66
2022-12-07T03:05:01.027Z,4.80
2022-12-07T03:08:25.340Z,4.74
2022-12-07T03:11:34.120Z,4.80
2022-12-07T03:14:42.447Z,4.76
2022-12-07T03:17:46.465Z,4.86
2022-12-07T03:20:51.972Z,4.89
2022-12-07T03:23:59.473Z,4.79
2022-12-07T03:27:07.682Z,4.83
2022-12-07T03:30:21.396Z,4.66
2022-12-07T03:33:47.820Z,4.46
2022-12-07T03:37:03.315Z,4.41
2022-12-07T03:40:23.825Z,4.14
2022-12-07T03:43:25.662Z,4.07
2022-12-07T03:46:45.839Z,3.98
2022-12-07T03:49:54.744Z,4.03
2022-12-07T03:53:00.910Z,4.22
2022-12-07T03:56:03.097Z,3.82
2022-12-07T03:59:04.848Z,3.76
2022-12-07T04:02:07.975Z,3.81
2022-12-07T04:05:10.166Z,3.71
2022-12-07T04:08:11.636Z,3.58
2022-12-07T04:11:13.327Z,3.51
2022-12-07T04:14:21.431Z,3.45
2022-12-07T04:17:22.943Z,3.49
2022-12-07T04:20:24.986Z,3.60
2022-12-07T04:23:26.431Z,3.51
2022-12-07T04:26:27.847Z,3.42
2022-12-07T04:29:29.329Z,3.49
2022-12-07T04:32:30.803Z,3.53
2022-12-07T04:35:32.329Z,3.62
2022-12-07T04:38:33.838Z,3.62
2022-12-07T04:41:35.336Z,3.61
2022-12-07T04:44:37.111Z,3.65
2022-12-07T04:47:38.550Z,3.86
2022-12-07T04:50:45.846Z,3.86
2022-12-07T04:53:47.965Z,3.97
2022-12-07T04:56:49.397Z,3.74
2022-12-07T04:59:50.833Z,3.80
2022-12-07T05:02:52.265Z,3.89
2022-12-07T05:05:53.697Z,3.88
2022-12-07T05:08:55.142Z,3.76
2022-12-07T05:11:56.587Z,3.52
2022-12-07T05:14:58.001Z,2.91
2022-12-07T05:17:59.510Z,3.33
2022-12-07T05:21:01.027Z,3.33
2022-12-07T05:24:03.021Z,2.99
2022-12-07T05:27:04.431Z,3.16
2022-12-07T05:30:06.558Z,3.01
2022-12-07T05:33:07.988Z,2.90
2022-12-07T05:36:09.480Z,3.25
2022-12-07T05:39:11.606Z,3.16
2022-12-07T05:42:13.201Z,3.25
2022-12-07T05:45:14.616Z,3.35
2022-12-07T05:48:16.030Z,3.27
2022-12-07T05:51:17.531Z,3.32
2022-12-07T05:54:19.148Z,3.07
2022-12-07T05:57:20.602Z,2.98
2022-12-07T06:00:22.188Z,3.15
2022-12-07T06:03:23.670Z,3.00
2022-12-07T06:06:25.262Z,3.06
2022-12-07T06:09:28.163Z,3.00
2022-12-07T06:12:35.356Z,2.83
2022-12-07T06:15:37.468Z,3.17
2022-12-07T06:18:38.893Z,3.33
2022-12-07T06:21:40.555Z,3.37
2022-12-07T06:24:42.133Z,3.33
2022-12-07T06:27:43.548Z,3.40
2022-12-07T06:30:44.979Z,3.29
2022-12-07T06:33:46.435Z,2.97
2022-12-07T06:36:52.087Z,2.95
2022-12-07T06:39:53.503Z,2.84
2022-12-07T06:42:54.940Z,3.16
2022-12-07T06:45:56.426Z,3.12
2022-12-07T06:48:57.979Z,2.99
2022-12-07T06:51:59.449Z,2.96
2022-12-07T06:55:00.920Z,2.94
2022-12-07T06:58:03.422Z,3.09
2022-12-07T07:01:10.721Z,3.21
2022-12-07T07:04:12.203Z,3.14
2022-12-07T07:07:13.614Z,2.89
2022-12-07T07:10:15.117Z,3.04
2022-12-07T07:13:16.528Z,3.34
2022-12-07T07:16:18.152Z,3.22
2022-12-07T07:19:19.629Z,3.40
2022-12-07T07:22:21.075Z,3.41
2022-12-07T07:25:22.669Z,3.15
2022-12-07T07:28:24.183Z,3.43
2022-12-07T07:31:25.733Z,3.32
2022-12-07T07:34:27.220Z,3.51
2022-12-07T07:37:28.669Z,3.56
2022-12-07T07:40:30.865Z,3.51
2022-12-07T07:43:33.820Z,3.49
2022-12-07T07:46:36.013Z,3.56
2022-12-07T07:49:37.506Z,3.62
2022-12-07T07:52:38.997Z,3.76
2022-12-07T07:55:40.455Z,3.68
2022-12-07T07:58:41.894Z,3.84
2022-12-07T08:01:43.364Z,3.83
2022-12-07T08:04:46.061Z,3.65
2022-12-07T08:07:47.744Z,3.66
2022-12-07T08:10:49.214Z,3.91
2022-12-07T08:13:50.713Z,3.96
2022-12-07T08:16:52.133Z,3.91
2022-12-07T08:19:53.567Z,3.76
2022-12-07T08:22:55.138Z,3.78
2022-12-07T08:26:01.472Z,3.75
2022-12-07T08:29:03.304Z,3.84
2022-12-07T08:32:09.458Z,4.03
2022-12-07T08:35:11.296Z,4.05
2022-12-07T08:38:12.777Z,4.07
2022-12-07T08:41:14.190Z,4.04
2022-12-07T08:44:15.655Z,3.88
2022-12-07T08:47:17.091Z,3.80
2022-12-07T08:50:19.422Z,3.96
2022-12-07T08:53:21.827Z,4.12
2022-12-07T08:56:23.330Z,4.14
2022-12-07T08:59:24.803Z,4.27
2022-12-07T09:02:26.744Z,4.36
2022-12-07T09:05:28.442Z,4.43
2022-12-07T09:08:45.173Z,4.57
2022-12-07T09:11:46.614Z,4.59
2022-12-07T09:14:48.044Z,4.50
2022-12-07T09:17:49.596Z,4.56
2022-12-07T09:20:51.751Z,4.49
2022-12-07T09:23:53.190Z,4.50
2022-12-07T09:26:54.707Z,4.46
2022-12-07T09:29:56.376Z,4.59
2022-12-07T09:32:58.195Z,4.66
2022-12-07T09:35:59.775Z,4.93
2022-12-07T09:39:01.257Z,4.87
2022-12-07T09:42:05.052Z,5.02
2022-12-07T09:45:13.012Z,4.93
2022-12-07T09:48:43.852Z,4.98
2022-12-07T09:51:45.884Z,4.88
2022-12-07T09:54:50.374Z,4.86
2022-12-07T09:57:53.064Z,4.77
2022-12-07T10:00:59.566Z,4.74
2022-12-07T10:04:19.351Z,4.99
2022-12-07T10:07:20.911Z,5.14
2022-12-07T10:10:32.762Z,5.22
2022-12-07T10:13:39.660Z,5.19
2022-12-07T10:16:42.759Z,5.24
2022-12-07T10:19:44.447Z,5.21
2022-12-07T10:22:59.511Z,5.22
2022-12-07T10:26:20.348Z,5.26
2022-12-07T10:29:38.426Z,5.27
2022-12-07T10:32:39.838Z,5.31
2022-12-07T10:35:44.467Z,5.16
2022-12-07T10:38:49.304Z,4.78
2022-12-07T10:42:02.773Z,4.95
2022-12-07T10:45:16.521Z,4.82
2022-12-07T10:48:27.652Z,4.98
2022-12-07T10:52:01.921Z,4.83
2022-12-07T10:55:35.816Z,4.90
2022-12-07T10:59:01.610Z,5.20
2022-12-07T11:02:22.983Z,5.26
2022-12-07T11:05:40.404Z,5.18
2022-12-07T11:08:45.072Z,5.02
2022-12-07T11:12:00.049Z,5.25
2022-12-07T11:15:19.407Z,5.08
2022-12-07T11:18:28.607Z,5.35
2022-12-07T11:21:53.808Z,5.57
2022-12-07T11:25:02.786Z,5.53
2022-12-07T11:28:16.853Z,5.54
2022-12-07T11:31:37.253Z,5.79
2022-12-07T11:34:45.775Z,5.53
2022-12-07T11:37:48.138Z,5.18
2022-12-07T11:40:50.624Z,5.20
2022-12-07T11:44:08.562Z,5.38
2022-12-07T11:47:29.232Z,6.08
2022-12-07T11:50:51.005Z,6.34
2022-12-07T11:54:10.352Z,5.82
2022-12-07T11:57:42.521Z,6.04
2022-12-07T12:00:44.192Z,5.91
2022-12-07T12:03:53.647Z,5.62
2022-12-07T12:06:56.439Z,6.16
2022-12-07T12:10:08.535Z,6.25
2022-12-07T12:17:07.343Z,6.37
2022-12-07T12:20:20.305Z,6.37
2022-12-07T12:23:25.376Z,6.25
2022-12-07T12:26:31.456Z,6.29
2022-12-07T12:29:36.929Z,6.01
2022-12-07T12:32:43.632Z,6.13
2022-12-07T12:35:46.307Z,6.26
2022-12-07T12:38:59.837Z,6.12
2022-12-07T12:42:01.590Z,6.23
2022-12-07T12:45:23.176Z,6.27
2022-12-07T12:48:37.610Z,6.24
2022-12-07T12:51:40.893Z,6.18
2022-12-07T12:55:12.863Z,5.65
2022-12-07T12:58:20.421Z,5.99
2022-12-07T13:01:28.080Z,5.89
2022-12-07T13:04:39.146Z,6.29
2022-12-07T13:07:50.948Z,6.03
2022-12-07T13:10:52.538Z,6.00
2022-12-07T13:14:33.823Z,6.27
2022-12-07T13:17:35.988Z,6.48
2022-12-07T13:20:52.288Z,6.41
2022-12-07T13:24:00.230Z,6.24
2022-12-07T13:27:01.953Z,6.13
2022-12-07T13:30:15.149Z,6.40
2022-12-07T13:33:19.575Z,6.31
2022-12-07T13:36:25.357Z,6.39
2022-12-07T13:39:28.643Z,6.47
2022-12-07T13:42:35.790Z,6.49
2022-12-07T13:45:49.564Z,6.38
2022-12-07T13:48:52.202Z,6.46
2022-12-07T13:51:54.253Z,6.52
2022-12-07T13:55:07.654Z,6.61
2022-12-07T13:58:10.068Z,6.66
2022-12-07T14:01:11.557Z,6.53
2022-12-07T14:04:34.112Z,6.43
2022-12-07T14:07:36.775Z,6.30
2022-12-07T14:10:42.290Z,6.41
2022-12-07T14:14:01.785Z,6.42
2022-12-07T14:17:30.010Z,6.46
2022-12-07T14:20:39.800Z,6.40
2022-12-07T14:23:41.645Z,6.22
2022-12-07T14:26:44.668Z,6.14
2022-12-07T14:29:46.405Z,6.29
2022-12-07T14:33:01.259Z,6.24
2022-12-07T14:36:02.830Z,6.34
2022-12-07T14:39:07.560Z,6.02
2022-12-07T14:42:13.316Z,6.09
2022-12-07T14:45:18.133Z,6.04
2022-12-07T14:55:15.275Z,6.16
2022-12-07T14:58:18.335Z,6.09
2022-12-07T15:01:19.903Z,6.12
2022-12-07T15:04:21.532Z,6.06
2022-12-07T15:07:23.432Z,6.16
2022-12-07T15:10:30.796Z,6.12
2022-12-07T15:13:50.848Z,6.04
2022-12-07T15:17:08.472Z,6.10
2022-12-07T15:20:14.495Z,6.16
2022-12-07T15:23:16.342Z,6.07
2022-12-07T15:26:17.966Z,6.03
2022-12-07T15:29:23.168Z,5.92
2022-12-07T15:32:25.485Z,5.93
2022-12-07T15:35:26.933Z,5.99
2022-12-07T15:38:57.464Z,5.78
2022-12-07T15:41:51.214Z,5.49
2022-12-07T15:45:05.338Z,5.43
2022-12-07T15:51:29.393Z,5.17
2022-12-07T15:54:32.960Z,5.31
2022-12-07T15:57:37.895Z,5.35
2022-12-07T16:00:39.298Z,5.32
2022-12-07T16:03:40.951Z,5.08
2022-12-07T16:06:42.395Z,5.40
2022-12-07T16:09:44.124Z,5.49
2022-12-07T16:12:45.622Z,5.20
2022-12-07T16:15:47.142Z,5.25
2022-12-07T16:18:49.658Z,5.25
2022-12-07T16:21:51.204Z,5.47
2022-12-07T16:24:52.679Z,5.37
2022-12-07T16:27:54.422Z,5.43
2022-12-07T16:31:07.786Z,5.56
2022-12-07T16:34:10.084Z,5.49
2022-12-07T16:37:11.511Z,5.33
2022-12-07T16:40:13.138Z,5.42
2022-12-07T16:43:14.853Z,5.57
2022-12-07T16:46:16.758Z,5.60
2022-12-07T16:49:19.422Z,5.61
2022-12-07T16:52:22.010Z,5.49
2022-12-07T16:55:23.425Z,5.55
2022-12-07T16:58:24.869Z,5.49
2022-12-07T17:01:29.061Z,5.45
2022-12-07T17:04:30.913Z,5.43
2022-12-07T17:07:32.511Z,5.53
2022-12-07T17:10:36.785Z,5.54
2022-12-07T17:13:56.861Z,5.48
2022-12-07T17:16:58.421Z,5.38
2022-12-07T17:19:59.878Z,5.14
2022-12-07T17:23:01.287Z,5.48
2022-12-07T17:26:35.125Z,5.30
2022-12-07T17:29:37.587Z,5.38
2022-12-07T17:32:39.157Z,5.46
2022-12-07T17:35:40.602Z,5.53
2022-12-07T17:38:42.558Z,5.49
2022-12-07T17:42:02.599Z,5.36
2022-12-07T17:45:05.509Z,5.49
2022-12-07T17:48:07.314Z,5.41
2022-12-07T17:51:27.603Z,5.55
2022-12-07T17:54:29.461Z,5.61
2022-12-07T17:57:30.908Z,5.49
2022-12-07T18:00:38.179Z,5.50
2022-12-07T18:03:39.717Z,5.45
2022-12-07T18:06:41.387Z,5.21
2022-12-07T18:09:42.850Z,5.40
2022-12-07T18:12:50.370Z,5.35
2022-12-07T18:15:57.656Z,5.31
2022-12-07T18:19:00.565Z,5.26
2022-12-07T18:22:01.958Z,5.12
2022-12-07T18:25:03.886Z,4.75
2022-12-07T18:28:05.555Z,4.49
2022-12-07T18:31:15.777Z,4.84
2022-12-07T18:34:18.876Z,4.89
2022-12-07T18:37:20.283Z,4.80
2022-12-07T18:40:21.712Z,4.92
2022-12-07T18:43:25.437Z,5.01
2022-12-07T18:46:27.096Z,5.00
2022-12-07T18:49:28.649Z,4.99
2022-12-07T18:52:30.076Z,4.86
2022-12-07T18:55:33.129Z,4.76
2022-12-07T18:58:34.960Z,4.69
2022-12-07T19:01:36.857Z,4.80
2022-12-07T19:04:38.403Z,4.63
2022-12-07T19:07:40.148Z,4.62
2022-12-07T19:10:41.590Z,4.67
2022-12-07T19:13:43.027Z,4.71
2022-12-07T19:16:45.457Z,4.67
2022-12-07T19:19:47.454Z,4.78
2022-12-07T19:22:48.887Z,4.59
2022-12-07T19:25:50.325Z,4.59
2022-12-07T19:28:51.774Z,4.70
2022-12-07T19:31:53.338Z,4.80
2022-12-07T19:34:56.119Z,4.72
2022-12-07T19:37:57.570Z,4.90
2022-12-07T19:41:28.906Z,4.86
2022-12-07T19:44:32.259Z,4.62
2022-12-07T19:47:33.809Z,4.53
2022-12-07T19:50:35.339Z,4.38
2022-12-07T19:53:36.960Z,4.48
2022-12-07T19:56:38.570Z,4.30
2022-12-07T19:59:40.297Z,3.82
2022-12-07T20:02:41.840Z,3.71
2022-12-07T20:05:43.338Z,4.02
2022-12-07T20:08:46.988Z,3.95
2022-12-07T20:12:07.858Z,3.89
2022-12-07T20:15:09.822Z,4.15
2022-12-07T20:18:11.282Z,4.30
2022-12-07T20:21:12.909Z,4.29
2022-12-07T20:24:25.849Z,4.43
2022-12-07T20:27:27.335Z,4.40
2022-12-07T20:30:28.830Z,4.37
2022-12-07T20:33:30.774Z,4.35
2022-12-07T20:36:33.520Z,4.43
2022-12-07T20:39:35.041Z,4.66
2022-12-07T20:42:39.576Z,4.70
2022-12-07T20:45:48.990Z,4.59
2022-12-07T20:48:50.720Z,4.33
2022-12-07T20:51:52.318Z,4.26
2022-12-07T20:54:53.893Z,4.25
2022-12-07T20:57:55.336Z,4.16
2022-12-07T21:01:01.070Z,4.10
2022-12-07T21:04:02.708Z,3.91
2022-12-07T21:07:04.234Z,3.95
2022-12-07T21:10:06.684Z,4.01
2022-12-07T21:13:08.034Z,3.95
2022-12-07T21:16:15.977Z,3.82
2022-12-07T21:19:17.545Z,3.72
2022-12-07T21:22:18.988Z,3.79
2022-12-07T21:25:20.547Z,3.68
2022-12-07T21:28:21.991Z,3.68
2022-12-07T21:31:23.727Z,3.54
2022-12-07T21:34:25.333Z,3.74
2022-12-07T21:37:26.802Z,3.93
2022-12-07T21:40:28.200Z,3.97
2022-12-07T21:43:29.630Z,3.95
2022-12-07T21:46:34.135Z,3.85
2022-12-07T21:49:36.467Z,3.79
2022-12-07T21:52:37.949Z,3.33
2022-12-07T21:55:41.376Z,3.33
2022-12-07T21:58:43.714Z,3.41
2022-12-07T22:01:47.319Z,3.29
2022-12-07T22:04:48.932Z,3.29
2022-12-07T22:07:50.411Z,3.35
2022-12-07T22:10:51.826Z,3.41
2022-12-07T22:14:11.954Z,3.01
2022-12-07T22:17:13.421Z,3.11
2022-12-07T22:20:14.897Z,3.23
2022-12-07T22:23:16.439Z,3.29
2022-12-07T22:26:22.862Z,3.18
2022-12-07T22:29:25.946Z,3.05
2022-12-07T22:35:53.237Z,3.14
2022-12-07T22:38:54.733Z,3.45
2022-12-07T22:41:56.131Z,3.54
2022-12-07T22:44:57.565Z,3.43
2022-12-07T22:47:58.999Z,3.48
2022-12-07T22:51:00.558Z,3.21
2022-12-07T22:54:04.934Z,3.46
2022-12-07T22:57:06.410Z,3.66
2022-12-07T23:00:09.006Z,3.56
2022-12-07T23:03:11.104Z,3.25
2022-12-07T23:06:16.190Z,3.38
2022-12-07T23:09:17.617Z,3.64
2022-12-07T23:12:37.522Z,3.57
2022-12-07T23:15:39.098Z,3.52
2022-12-07T23:18:42.165Z,3.19
2022-12-07T23:21:43.915Z,2.78
2022-12-07T23:24:45.306Z,2.89
2022-12-07T23:27:46.762Z,2.87
2022-12-07T23:30:48.236Z,2.66
2022-12-07T23:33:49.865Z,2.67
2022-12-07T23:36:51.270Z,2.80
2022-12-07T23:39:52.699Z,2.91
2022-12-07T23:42:54.122Z,3.14
2022-12-07T23:45:55.547Z,3.02
2022-12-07T23:48:58.394Z,2.99
2022-12-07T23:51:59.816Z,3.01
2022-12-07T23:55:01.596Z,2.93
2022-12-07T23:58:03.223Z,3.00
